To NAV CANADA Home Page Login to a new session Search on AWWS site Feedback and Comments Disclaimer Vers la page française équivalente Tips FAQ What's new on the site To the Forecasts and Observations / NOTAM section To "File a Flight Plan" website Publications and other links Update of the User's profile FIC Telephone Numbers My Weather Data Folder Route Weather Data Regional Weather Data Local Weather Data To the Forecasts and Observations / NOTAM section
Request Generated 10/26/2016 at 23:02:56 UTC . Weather information available at that time is displayed.



METAR CYKY 262300Z 20004KT 15SM FEW018 BKN080 07/03 A2999 RMK SC2AC5
METAR CYKY 262200Z 24004KT 15SM BKN080 08/03 A2999 RMK AC6 SLP177=
METAR CYKY 262100Z 24006KT 210V280 15SM FEW015 BKN080 07/03 A3002 RMK
SC2AC5 SLP185=

CYKY - No TAF is issued for this station

Your time UTC time
Weather data provided by Environment Canada and NAV CANADA